Time;durP1;ratioP1;P1;durP2;ratioP2;P2;SDS_P1;SDS_P2;PMS_P1;PMS_P2;Temp;Humidity;BMP_temperature;BMP_pressure;BME280_temperature;BME280_humidity;BME280_pressure;Samples;Min_cycle;Max_cycle;Signal;HPM_P1;HPM_P2
2022/12/27 00:01:17;;;;;;;4.10;2.10;;;4.40;99.90;;;;;;5090431;28;20197;-83
2022/12/27 00:03:45;;;;;;;5.20;1.70;;;4.40;99.90;;;;;;5108435;28;20235;-83
2022/12/27 00:06:14;;;;;;;8.50;3.30;;;4.30;99.90;;;;;;5093399;28;20269;-82
2022/12/27 00:08:41;;;;;;;7.73;1.77;;;4.30;99.90;;;;;;5093687;28;20222;-83
2022/12/27 00:11:10;;;;;;;5.77;2.07;;;4.50;99.90;;;;;;5094885;28;20569;-83
2022/12/27 00:13:37;;;;;;;4.47;1.60;;;4.40;99.90;;;;;;5094215;28;20681;-82
2022/12/27 00:16:05;;;;;;;6.30;2.10;;;4.40;99.90;;;;;;5095758;28;20222;-82
2022/12/27 00:18:34;;;;;;;7.47;2.17;;;4.40;99.90;;;;;;5094931;28;20229;-82
2022/12/27 00:21:02;;;;;;;8.07;2.27;;;4.50;99.90;;;;;;5093505;28;20208;-82
2022/12/27 00:23:33;;;;;;;6.27;1.97;;;4.50;99.90;;;;;;5094628;28;20206;-83
2022/12/27 00:26:01;;;;;;;5.50;2.63;;;4.50;99.90;;;;;;5089638;28;20210;-83
2022/12/27 00:28:30;;;;;;;4.90;2.40;;;4.40;99.90;;;;;;5088674;28;20221;-83
2022/12/27 00:30:57;;;;;;;9.63;2.60;;;4.40;99.90;;;;;;5092497;28;20223;-83
2022/12/27 00:33:24;;;;;;;7.70;2.60;;;4.40;99.90;;;;;;5091744;28;20198;-83
2022/12/27 00:35:52;;;;;;;6.93;2.77;;;4.40;99.90;;;;;;5106639;28;20671;-82
2022/12/27 00:38:19;;;;;;;8.93;3.03;;;4.30;99.90;;;;;;5092613;28;20221;-82
2022/12/27 00:40:46;;;;;;;12.90;3.57;;;4.40;99.90;;;;;;5090286;28;20210;-81
2022/12/27 00:43:13;;;;;;;9.07;2.83;;;4.40;99.90;;;;;;5091775;28;20285;-82
2022/12/27 00:45:39;;;;;;;10.47;3.53;;;4.40;99.90;;;;;;5095559;28;20214;-82
2022/12/27 00:48:06;;;;;;;6.63;3.10;;;4.50;99.90;;;;;;5093612;28;20221;-82
2022/12/27 00:50:33;;;;;;;9.33;3.40;;;4.50;99.90;;;;;;5094895;28;20198;-82
2022/12/27 00:53:02;;;;;;;10.60;3.50;;;4.60;99.90;;;;;;5082600;28;20210;-82
2022/12/27 00:55:29;;;;;;;8.97;4.07;;;4.60;99.90;;;;;;5075243;28;20208;-82
2022/12/27 00:57:55;;;;;;;7.60;4.03;;;4.70;99.90;;;;;;5072923;28;20317;-82
2022/12/27 01:00:22;;;;;;;7.40;3.50;;;4.60;99.90;;;;;;5095265;28;20670;-82
2022/12/27 01:02:49;;;;;;;7.17;3.40;;;4.70;99.90;;;;;;5092418;28;20550;-82
2022/12/27 01:05:16;;;;;;;10.73;3.90;;;4.70;99.90;;;;;;5098606;28;20284;-82
2022/12/27 01:07:43;;;;;;;9.60;3.90;;;4.80;99.90;;;;;;5093345;28;20221;-82
2022/12/27 01:10:11;;;;;;;14.80;5.10;;;4.80;99.90;;;;;;5094463;28;20208;-82
2022/12/27 01:12:38;;;;;;;9.03;3.63;;;4.80;99.90;;;;;;5090798;28;20475;-83
2022/12/27 01:15:06;;;;;;;9.40;3.63;;;4.80;99.90;;;;;;5095107;28;20202;-83
2022/12/27 01:17:33;;;;;;;10.20;4.00;;;4.90;99.90;;;;;;5095538;28;20235;-82
2022/12/27 01:20:00;;;;;;;13.47;3.73;;;4.90;99.90;;;;;;5078373;28;20198;-82
2022/12/27 01:22:26;;;;;;;10.43;4.03;;;4.80;99.90;;;;;;5092786;28;20206;-83
2022/12/27 01:24:53;;;;;;;9.20;3.47;;;4.80;99.90;;;;;;5089664;28;20201;-82
2022/12/27 01:27:21;;;;;;;7.43;3.67;;;4.70;99.90;;;;;;5090456;28;20304;-82
2022/12/27 01:29:48;;;;;;;7.73;3.37;;;4.60;99.90;;;;;;5098352;28;20205;-82
2022/12/27 01:32:15;;;;;;;6.40;3.40;;;4.60;99.90;;;;;;5083258;28;20198;-83
2022/12/27 01:34:42;;;;;;;10.50;3.70;;;4.60;99.90;;;;;;5080839;28;20194;-82
2022/12/27 01:37:08;;;;;;;8.90;3.50;;;4.50;99.90;;;;;;5094766;28;20216;-82
2022/12/27 01:39:35;;;;;;;8.67;3.57;;;4.40;99.90;;;;;;5091095;28;20202;-82
2022/12/27 01:44:54;;;;;;;7.73;3.80;;;4.50;99.90;;;;;;5083935;28;20286;-83
2022/12/27 01:47:40;;;;;;;9.93;2.97;;;4.40;99.90;;;;;;5092688;28;20224;-83
2022/12/27 01:50:12;;;;;;;11.47;3.20;;;4.40;99.90;;;;;;5097238;28;20577;-83
2022/12/27 01:52:41;;;;;;;9.67;3.17;;;4.40;99.90;;;;;;5093286;28;20197;-82
2022/12/27 01:55:16;;;;;;;8.50;3.00;;;4.50;99.90;;;;;;5077715;28;20198;-83
2022/12/27 01:57:43;;;;;;;9.67;3.60;;;4.60;99.90;;;;;;5094340;28;20221;-83
2022/12/27 02:00:13;;;;;;;8.97;3.30;;;4.40;99.90;;;;;;5097403;28;20217;-83
2022/12/27 02:02:40;;;;;;;5.70;2.80;;;4.40;99.90;;;;;;5078616;28;20234;-83
2022/12/27 02:05:09;;;;;;;6.10;2.20;;;4.40;99.90;;;;;;5101151;28;20197;-83
2022/12/27 02:07:45;;;;;;;12.70;4.27;;;4.40;99.90;;;;;;5094154;28;20225;-83
2022/12/27 02:10:12;;;;;;;8.07;2.57;;;4.40;99.90;;;;;;5091287;28;20213;-82
2022/12/27 02:12:39;;;;;;;7.53;2.67;;;4.40;99.90;;;;;;5075229;28;20571;-83
2022/12/27 02:15:06;;;;;;;12.33;3.33;;;4.30;99.90;;;;;;5077010;28;20224;-82
2022/12/27 02:17:35;;;;;;;8.10;2.73;;;4.30;99.90;;;;;;5088513;28;20237;-83
2022/12/27 02:20:09;;;;;;;6.23;2.67;;;4.30;99.90;;;;;;5096890;28;20209;-83
2022/12/27 02:26:24;;;;;;;10.57;2.60;;;4.40;99.90;;;;;;5075565;28;20565;-83
2022/12/27 02:29:07;;;;;;;7.60;2.20;;;4.50;99.90;;;;;;5083315;28;20240;-82
2022/12/27 02:31:40;;;;;;;8.90;2.33;;;4.40;99.90;;;;;;5075195;28;20202;-82
2022/12/27 02:34:14;;;;;;;8.53;2.20;;;4.40;99.90;;;;;;5077125;28;20202;-82
2022/12/27 02:36:44;;;;;;;6.70;2.63;;;4.40;99.90;;;;;;5077369;28;20230;-82
2022/12/27 02:39:12;;;;;;;7.73;2.23;;;4.40;99.90;;;;;;5093167;28;20727;-83
2022/12/27 02:53:07;;;;;;;6.07;2.00;;;4.50;99.90;;;;;;5096462;28;20323;-83
2022/12/27 02:58:53;;;;;;;9.27;2.17;;;4.50;99.90;;;;;;5088078;28;20244;-83
2022/12/27 03:04:38;;;;;;;9.70;2.27;;;4.60;99.90;;;;;;5089843;28;20227;-83
2022/12/27 03:07:18;;;;;;;7.93;2.30;;;4.40;99.90;;;;;;5093976;28;20572;-83
2022/12/27 03:15:57;;;;;;;10.33;2.47;;;4.50;99.90;;;;;;5075640;28;20205;-82
2022/12/27 03:18:49;;;;;;;8.87;2.70;;;4.60;99.90;;;;;;5090790;28;20221;-83
2022/12/27 03:26:58;;;;;;;10.60;2.70;;;4.60;99.90;;;;;;5090145;28;20265;-83
2022/12/27 03:35:06;;;;;;;10.20;4.70;;;4.60;99.90;;;;;;5078899;28;20208;-83
2022/12/27 03:40:32;;;;;;;7.83;3.50;;;4.80;99.90;;;;;;5092275;28;20204;-83
2022/12/27 03:43:10;;;;;;;7.83;3.20;;;4.60;99.90;;;;;;5095571;28;20234;-83
2022/12/27 03:49:03;;;;;;;7.30;3.10;;;4.60;99.90;;;;;;5094222;28;20362;-83
2022/12/27 03:51:37;;;;;;;9.70;4.13;;;4.60;99.90;;;;;;5082805;28;20210;-83
2022/12/27 03:54:08;;;;;;;11.80;4.20;;;4.50;99.90;;;;;;5096317;28;20220;-82
2022/12/27 03:56:36;;;;;;;10.47;3.80;;;4.60;99.90;;;;;;5096052;28;20196;-82
2022/12/27 03:59:04;;;;;;;7.73;3.73;;;4.60;99.90;;;;;;5092949;28;20237;-82
2022/12/27 04:01:31;;;;;;;9.60;3.50;;;4.70;99.90;;;;;;5087807;28;20205;-82
2022/12/27 04:03:58;;;;;;;11.63;4.13;;;4.70;99.90;;;;;;5095387;28;20666;-83
2022/12/27 04:06:25;;;;;;;9.00;4.50;;;4.60;99.90;;;;;;5096092;28;20205;-83
2022/12/27 04:36:16;;;;;;;8.37;5.10;;;4.70;99.90;;;;;;5079103;28;20232;-82
2022/12/27 04:38:42;;;;;;;11.07;5.50;;;4.70;99.90;;;;;;5080619;28;20712;-83
2022/12/27 04:55:08;;;;;;;8.43;5.27;;;5.00;99.90;;;;;;5099723;28;20196;-83
2022/12/27 04:57:37;;;;;;;10.13;5.50;;;5.00;99.90;;;;;;5098965;28;20221;-83
2022/12/27 05:02:48;;;;;;;13.13;5.43;;;5.00;99.90;;;;;;5098233;28;20244;-83
2022/12/27 05:05:15;;;;;;;12.80;6.63;;;5.10;99.90;;;;;;5098365;28;21026;-83
2022/12/27 05:15:57;;;;;;;12.27;6.53;;;5.20;99.90;;;;;;5096369;28;20231;-82
2022/12/27 05:18:24;;;;;;;11.53;6.53;;;5.30;99.90;;;;;;5095205;28;20228;-82
2022/12/27 05:20:51;;;;;;;12.93;6.17;;;5.30;99.90;;;;;;5090157;28;20291;-83
2022/12/27 05:26:02;;;;;;;10.60;5.63;;;5.40;99.90;;;;;;5095639;28;20551;-83
2022/12/27 05:28:30;;;;;;;13.37;6.10;;;5.40;99.90;;;;;;5082289;28;20750;-82
2022/12/27 05:31:01;;;;;;;12.40;6.47;;;5.40;99.90;;;;;;5095521;28;20197;-83
2022/12/27 05:33:30;;;;;;;12.73;5.27;;;5.40;99.90;;;;;;5093208;28;20255;-83
2022/12/27 05:35:58;;;;;;;11.80;6.07;;;5.50;99.90;;;;;;5085745;28;20202;-82
2022/12/27 05:38:25;;;;;;;14.23;6.13;;;5.50;99.90;;;;;;5095008;28;20231;-82
2022/12/27 05:40:57;;;;;;;11.20;5.63;;;5.50;99.90;;;;;;5092933;28;20201;-83
2022/12/27 05:43:24;;;;;;;13.37;6.20;;;5.50;99.90;;;;;;5097289;28;20194;-83
2022/12/27 05:45:53;;;;;;;12.47;6.20;;;5.50;99.90;;;;;;5096617;28;20198;-83
2022/12/27 05:48:19;;;;;;;11.10;6.10;;;5.50;99.90;;;;;;5097728;28;20218;-84
2022/12/27 05:50:46;;;;;;;13.70;7.23;;;5.60;99.90;;;;;;5076450;28;20289;-82
2022/12/27 05:53:13;;;;;;;12.17;6.73;;;5.60;99.90;;;;;;5093632;28;20677;-83
2022/12/27 05:55:41;;;;;;;9.60;6.53;;;5.60;99.90;;;;;;5097564;28;20227;-83
2022/12/27 05:58:07;;;;;;;13.33;6.60;;;5.50;99.90;;;;;;5095695;28;20236;-83
2022/12/27 06:00:34;;;;;;;13.30;7.40;;;5.50;99.90;;;;;;5088177;28;20269;-83
2022/12/27 06:03:03;;;;;;;11.33;6.13;;;5.50;99.90;;;;;;5091119;28;20224;-83
2022/12/27 06:05:30;;;;;;;11.73;7.07;;;5.40;99.90;;;;;;5079245;28;20214;-82
2022/12/27 06:07:57;;;;;;;16.80;7.87;;;5.50;99.90;;;;;;5076784;28;20229;-83
2022/12/27 06:10:24;;;;;;;14.40;7.87;;;5.50;99.90;;;;;;5088106;28;20208;-82
2022/12/27 06:12:50;;;;;;;16.60;7.00;;;5.60;99.90;;;;;;5095572;28;20201;-82
2022/12/27 06:15:17;;;;;;;11.83;6.60;;;5.60;99.90;;;;;;5076713;28;20206;-83
2022/12/27 06:17:44;;;;;;;13.73;6.63;;;5.60;99.90;;;;;;5073928;28;20218;-83
2022/12/27 06:20:12;;;;;;;15.17;7.40;;;5.60;99.90;;;;;;5087196;28;20289;-82
2022/12/27 06:22:39;;;;;;;16.07;7.30;;;5.60;99.90;;;;;;5101599;28;20190;-82
2022/12/27 06:25:06;;;;;;;17.43;6.57;;;5.60;99.90;;;;;;5091955;28;20202;-83
2022/12/27 06:27:33;;;;;;;12.30;6.30;;;5.60;99.90;;;;;;5090735;28;20221;-83
2022/12/27 06:30:00;;;;;;;11.07;6.90;;;5.60;99.90;;;;;;5077338;28;20210;-83
2022/12/27 06:32:27;;;;;;;11.53;7.50;;;5.60;99.90;;;;;;5093748;28;20674;-83
2022/12/27 06:34:54;;;;;;;10.57;7.33;;;5.60;99.90;;;;;;5089500;28;20572;-83
2022/12/27 06:37:22;;;;;;;11.90;7.03;;;5.60;99.90;;;;;;5096167;28;20218;-83
2022/12/27 06:39:49;;;;;;;11.90;7.10;;;5.60;99.90;;;;;;5083589;28;20214;-82
2022/12/27 06:42:16;;;;;;;13.47;8.17;;;5.60;99.90;;;;;;5093022;28;20292;-83
2022/12/27 06:44:42;;;;;;;12.80;9.10;;;5.60;99.90;;;;;;5095974;28;20223;-83
2022/12/27 06:47:09;;;;;;;11.93;7.83;;;5.60;99.90;;;;;;5095641;28;20217;-83
2022/12/27 06:49:36;;;;;;;13.20;7.43;;;5.60;99.90;;;;;;5078270;28;20216;-83
2022/12/27 06:52:03;;;;;;;12.47;7.10;;;5.60;99.90;;;;;;5087213;28;20214;-82
2022/12/27 06:54:31;;;;;;;11.17;7.10;;;5.60;99.90;;;;;;5091425;28;20555;-83
2022/12/27 06:56:58;;;;;;;10.97;7.57;;;5.50;99.90;;;;;;5095243;28;20201;-83
2022/12/27 06:59:25;;;;;;;13.53;8.13;;;5.60;99.90;;;;;;5093948;28;20213;-83
2022/12/27 07:01:52;;;;;;;11.90;7.50;;;5.50;99.90;;;;;;5096059;28;20197;-82
2022/12/27 07:04:19;;;;;;;14.07;7.17;;;5.60;99.90;;;;;;5094232;28;20480;-82
2022/12/27 07:06:45;;;;;;;16.23;7.47;;;5.50;99.90;;;;;;5094737;28;20312;-83
2022/12/27 07:09:12;;;;;;;13.73;7.43;;;5.50;99.90;;;;;;5092074;28;20221;-83
2022/12/27 07:11:40;;;;;;;13.30;7.97;;;5.50;99.90;;;;;;5093360;28;20457;-83
2022/12/27 07:14:09;;;;;;;12.77;7.37;;;5.50;99.90;;;;;;5088653;28;20210;-82
2022/12/27 07:16:36;;;;;;;17.27;7.60;;;5.40;99.90;;;;;;5073802;28;20658;-82
2022/12/27 07:19:03;;;;;;;13.87;8.13;;;5.40;99.90;;;;;;5075631;28;20238;-82
2022/12/27 07:21:30;;;;;;;15.17;7.47;;;5.40;99.90;;;;;;5094002;28;20202;-83
2022/12/27 07:23:57;;;;;;;14.33;7.33;;;5.40;99.90;;;;;;5103787;28;20197;-83
2022/12/27 07:26:27;;;;;;;14.57;8.00;;;5.40;99.90;;;;;;5099083;28;20474;-83
2022/12/27 07:28:56;;;;;;;13.67;8.73;;;5.40;99.90;;;;;;5110626;28;20213;-83
2022/12/27 07:31:25;;;;;;;13.93;8.03;;;5.50;99.90;;;;;;5100338;28;20213;-83
2022/12/27 07:33:52;;;;;;;11.77;7.37;;;5.50;99.90;;;;;;5094237;28;20292;-83
2022/12/27 07:36:21;;;;;;;14.97;8.60;;;5.50;99.90;;;;;;5087736;28;20202;-83
2022/12/27 07:38:48;;;;;;;12.50;7.77;;;5.50;99.90;;;;;;5073835;28;20222;-83
2022/12/27 07:41:16;;;;;;;11.83;8.13;;;5.50;99.90;;;;;;5084280;28;20210;-83
2022/12/27 07:43:43;;;;;;;14.07;7.60;;;5.40;99.90;;;;;;5087674;28;20206;-83
2022/12/27 07:46:13;;;;;;;15.10;8.63;;;5.40;99.90;;;;;;5075077;28;20206;-83
2022/12/27 07:48:41;;;;;;;14.63;7.63;;;5.40;99.90;;;;;;5075042;28;20242;-82
2022/12/27 07:51:08;;;;;;;13.10;7.53;;;5.50;99.90;;;;;;5080967;28;20205;-83
2022/12/27 07:53:35;;;;;;;12.37;7.10;;;5.50;99.90;;;;;;5090243;28;20197;-83
2022/12/27 07:56:06;;;;;;;15.97;7.67;;;5.50;99.90;;;;;;5094548;28;20201;-83
2022/12/27 07:58:36;;;;;;;13.53;6.87;;;5.60;99.90;;;;;;5091583;28;20222;-82
2022/12/27 08:01:03;;;;;;;12.67;6.70;;;5.70;99.90;;;;;;5095773;28;20290;-83
2022/12/27 08:03:32;;;;;;;12.87;6.93;;;5.70;99.90;;;;;;5089771;28;20206;-83
2022/12/27 08:05:59;;;;;;;15.23;7.30;;;5.70;99.90;;;;;;5075965;28;20199;-83
2022/12/27 08:08:30;;;;;;;14.77;6.83;;;5.70;99.90;;;;;;5105852;28;20695;-83
2022/12/27 08:10:57;;;;;;;11.50;6.47;;;5.70;99.90;;;;;;5089990;28;20198;-82
2022/12/27 08:13:25;;;;;;;10.23;6.10;;;5.70;99.90;;;;;;5091920;28;20207;-83
2022/12/27 08:15:52;;;;;;;11.00;6.10;;;5.70;99.90;;;;;;5094286;28;20205;-83
2022/12/27 08:18:19;;;;;;;8.87;5.97;;;5.70;99.90;;;;;;5087194;28;20238;-83
2022/12/27 08:20:47;;;;;;;11.17;5.97;;;5.70;99.90;;;;;;5075090;28;20534;-82
2022/12/27 08:23:14;;;;;;;10.27;5.83;;;5.80;99.90;;;;;;5080242;28;20212;-83
2022/12/27 08:25:41;;;;;;;17.13;6.60;;;5.80;99.90;;;;;;5089575;28;20212;-82
2022/12/27 08:28:10;;;;;;;9.63;5.70;;;5.80;99.90;;;;;;5089771;28;20263;-83
2022/12/27 08:30:39;;;;;;;11.03;5.90;;;5.80;99.90;;;;;;5094217;28;20201;-83
2022/12/27 08:33:06;;;;;;;14.50;6.67;;;5.80;99.90;;;;;;5092548;28;20201;-83
2022/12/27 08:35:37;;;;;;;8.70;5.50;;;5.80;99.90;;;;;;5090409;28;20204;-83
2022/12/27 08:38:06;;;;;;;14.10;5.23;;;5.80;99.90;;;;;;5092131;28;20615;-83
2022/12/27 08:40:32;;;;;;;10.10;5.27;;;5.80;99.90;;;;;;5094817;28;20202;-83
2022/12/27 08:42:59;;;;;;;12.00;5.87;;;5.90;99.90;;;;;;5090264;28;20210;-83
2022/12/27 08:45:26;;;;;;;10.33;4.90;;;5.90;99.90;;;;;;5074484;28;20210;-83
2022/12/27 08:47:53;;;;;;;9.93;5.47;;;5.90;99.90;;;;;;5075587;28;20268;-84
2022/12/27 08:50:19;;;;;;;11.57;5.47;;;5.90;99.90;;;;;;5094219;28;20202;-84
2022/12/27 08:52:46;;;;;;;16.43;6.17;;;5.90;99.90;;;;;;5093979;28;20546;-83
2022/12/27 08:55:14;;;;;;;12.07;5.43;;;5.90;99.90;;;;;;5094557;28;20220;-83
2022/12/27 08:57:41;;;;;;;9.63;5.47;;;5.90;99.90;;;;;;5090344;28;20263;-84
2022/12/27 09:00:09;;;;;;;12.40;5.10;;;5.90;99.90;;;;;;5092676;28;20222;-83
2022/12/27 09:02:37;;;;;;;9.07;4.97;;;5.80;99.90;;;;;;5093402;28;20209;-83
2022/12/27 09:05:04;;;;;;;11.93;5.50;;;5.80;99.90;;;;;;5080911;28;20232;-82
2022/12/27 09:07:32;;;;;;;11.50;5.03;;;5.80;99.90;;;;;;5091410;28;20719;-82
2022/12/27 09:09:58;;;;;;;7.03;4.40;;;5.80;99.90;;;;;;5096846;28;20193;-82
2022/12/27 09:12:26;;;;;;;11.47;4.70;;;5.70;99.90;;;;;;5087029;28;20207;-82
2022/12/27 09:14:53;;;;;;;9.87;4.67;;;5.80;99.90;;;;;;5094956;28;20202;-83
2022/12/27 09:17:20;;;;;;;9.00;4.60;;;5.70;99.90;;;;;;5094980;28;20228;-83
2022/12/27 09:19:47;;;;;;;8.20;4.53;;;5.70;99.90;;;;;;5087233;28;20230;-83
2022/12/27 09:22:13;;;;;;;10.33;4.50;;;5.70;99.90;;;;;;5081654;28;20197;-82
2022/12/27 09:24:40;;;;;;;10.07;4.50;;;5.70;99.90;;;;;;5096167;28;20207;-83
2022/12/27 09:27:07;;;;;;;10.17;4.40;;;5.70;99.90;;;;;;5080022;28;20584;-83
2022/12/27 09:29:35;;;;;;;12.23;4.50;;;5.70;99.90;;;;;;5102604;28;20205;-84
2022/12/27 09:32:02;;;;;;;10.40;4.23;;;5.80;99.90;;;;;;5116091;28;20284;-84
2022/12/27 09:34:29;;;;;;;10.77;3.80;;;5.80;99.90;;;;;;5098196;28;20216;-84
2022/12/27 09:36:55;;;;;;;8.87;4.00;;;5.80;99.90;;;;;;5093494;28;20209;-84
2022/12/27 09:39:22;;;;;;;9.77;3.70;;;5.90;99.90;;;;;;5096843;28;20225;-84
2022/12/27 09:41:57;;;;;;;8.77;3.90;;;5.90;99.90;;;;;;5081567;28;20206;-84
2022/12/27 09:44:31;;;;;;;11.77;4.07;;;5.90;99.90;;;;;;5097754;28;20193;-84
2022/12/27 09:47:04;;;;;;;7.47;3.80;;;5.90;99.90;;;;;;5098148;28;20570;-84
2022/12/27 09:49:35;;;;;;;9.53;4.60;;;5.90;99.90;;;;;;5097542;28;20261;-84
2022/12/27 09:52:05;;;;;;;7.47;3.57;;;5.90;99.90;;;;;;5096350;28;20267;-84
2022/12/27 09:54:38;;;;;;;8.00;4.10;;;6.00;99.90;;;;;;5094676;28;20209;-84
2022/12/27 09:57:16;;;;;;;10.07;3.83;;;6.10;99.90;;;;;;5098539;28;20190;-83
2022/12/27 09:59:47;;;;;;;9.67;3.80;;;6.10;99.90;;;;;;5098183;28;20613;-84
2022/12/27 10:02:21;;;;;;;7.87;3.30;;;6.10;99.90;;;;;;5092748;28;20197;-84
2022/12/27 10:04:48;;;;;;;8.30;3.90;;;6.10;99.90;;;;;;5084372;28;20254;-84
2022/12/27 10:07:25;;;;;;;7.97;3.43;;;6.20;99.90;;;;;;5097445;28;20638;-83
2022/12/27 10:10:00;;;;;;;9.63;3.43;;;6.30;99.90;;;;;;5098249;28;20201;-84
2022/12/27 10:12:44;;;;;;;6.43;3.00;;;6.40;99.90;;;;;;5097958;28;20540;-84
2022/12/27 10:15:23;;;;;;;6.77;3.30;;;6.30;99.90;;;;;;5095522;28;20567;-84
2022/12/27 10:18:01;;;;;;;8.10;3.30;;;6.40;99.90;;;;;;5098243;28;20239;-84
2022/12/27 10:20:43;;;;;;;12.50;3.20;;;6.40;99.90;;;;;;5097267;28;20248;-84
2022/12/27 10:23:15;;;;;;;6.30;3.20;;;6.30;99.90;;;;;;5095332;28;20581;-84
2022/12/27 10:25:43;;;;;;;7.90;3.60;;;6.20;99.90;;;;;;5096993;28;20210;-83
2022/12/27 10:28:16;;;;;;;9.70;3.40;;;6.30;99.90;;;;;;5097014;28;20222;-84
2022/12/27 10:30:43;;;;;;;10.63;3.17;;;6.30;99.90;;;;;;5097116;28;20202;-85
2022/12/27 10:33:20;;;;;;;7.37;3.27;;;6.30;99.90;;;;;;5096045;28;20197;-84
2022/12/27 10:35:47;;;;;;;7.97;4.00;;;6.40;99.90;;;;;;5092188;28;20239;-84
2022/12/27 10:38:14;;;;;;;8.17;3.60;;;6.60;99.90;;;;;;5096950;28;20232;-84
2022/12/27 10:40:49;;;;;;;5.47;3.13;;;6.80;99.90;;;;;;5097046;28;20670;-84
2022/12/27 10:43:19;;;;;;;8.50;3.17;;;6.80;99.90;;;;;;5096839;28;20288;-84
2022/12/27 10:45:46;;;;;;;8.33;3.27;;;6.80;99.90;;;;;;5094221;28;20297;-84
2022/12/27 10:48:17;;;;;;;11.47;3.30;;;6.70;99.90;;;;;;5094589;28;20221;-84
2022/12/27 10:50:47;;;;;;;7.63;3.67;;;6.80;99.90;;;;;;5096861;28;20658;-84
2022/12/27 10:53:31;;;;;;;6.20;3.47;;;6.90;99.90;;;;;;5096684;28;20204;-84
2022/12/27 10:56:08;;;;;;;14.53;4.97;;;7.00;99.90;;;;;;5092960;28;20208;-84
2022/12/27 10:58:39;;;;;;;6.23;3.50;;;7.00;99.90;;;;;;5076108;28;20706;-82
2022/12/27 11:01:14;;;;;;;9.73;3.60;;;7.20;99.90;;;;;;5076398;28;20202;-82
2022/12/27 11:03:42;;;;;;;8.87;3.43;;;7.30;99.90;;;;;;5076053;28;20273;-83
2022/12/27 11:06:19;;;;;;;10.27;3.77;;;7.50;99.90;;;;;;5085409;28;20212;-82
2022/12/27 11:08:45;;;;;;;4.93;2.93;;;7.60;99.90;;;;;;5096640;28;20632;-83
2022/12/27 11:11:15;;;;;;;7.97;3.83;;;7.40;99.90;;;;;;5096370;28;20579;-82
2022/12/27 11:13:42;;;;;;;9.50;3.77;;;7.40;99.90;;;;;;5096691;28;20576;-82
2022/12/27 11:16:15;;;;;;;7.93;3.83;;;7.40;99.90;;;;;;5096144;28;20212;-84
2022/12/27 11:18:48;;;;;;;9.60;4.43;;;7.40;99.90;;;;;;5096892;28;20217;-83
2022/12/27 11:21:15;;;;;;;8.17;4.00;;;7.40;99.90;;;;;;5086321;28;20202;-83
2022/12/27 11:23:48;;;;;;;10.07;4.17;;;7.50;99.90;;;;;;5097171;28;20726;-84
2022/12/27 11:26:23;;;;;;;9.30;3.60;;;7.40;99.90;;;;;;5104558;28;20248;-84
2022/12/27 11:28:53;;;;;;;8.90;3.73;;;7.30;99.90;;;;;;5095311;28;20228;-83
2022/12/27 11:31:29;;;;;;;8.80;3.73;;;7.20;99.90;;;;;;5103874;28;20197;-83
2022/12/27 11:34:00;;;;;;;11.10;3.97;;;7.20;99.90;;;;;;5094002;28;20193;-83
2022/12/27 11:36:29;;;;;;;6.47;3.17;;;7.10;99.90;;;;;;5093123;28;20198;-84
2022/12/27 11:38:56;;;;;;;6.47;3.40;;;7.10;99.90;;;;;;5093239;28;20224;-84
2022/12/27 11:41:33;;;;;;;10.23;3.50;;;7.10;99.90;;;;;;5086726;28;20680;-83
2022/12/27 11:44:04;;;;;;;10.03;3.60;;;7.10;99.90;;;;;;5082977;28;20206;-84
2022/12/27 11:46:38;;;;;;;6.93;3.30;;;7.10;99.90;;;;;;5079087;28;20583;-83
2022/12/27 11:49:11;;;;;;;9.93;3.57;;;7.10;99.90;;;;;;5095277;28;20214;-83
2022/12/27 11:52:07;;;;;;;10.83;3.33;;;7.00;99.90;;;;;;5094459;28;20209;-84
2022/12/27 11:54:58;;;;;;;6.60;3.10;;;7.00;99.90;;;;;;5095378;28;20197;-83
2022/12/27 11:57:39;;;;;;;5.90;3.57;;;7.10;99.90;;;;;;5091881;28;20307;-84
2022/12/27 12:00:14;;;;;;;7.57;3.30;;;7.00;99.90;;;;;;5095153;28;20227;-83
2022/12/27 12:03:18;;;;;;;6.10;3.50;;;6.90;99.90;;;;;;5092648;28;20195;-83
2022/12/27 12:05:57;;;;;;;8.63;3.67;;;6.90;99.90;;;;;;5075368;28;20225;-83
2022/12/27 12:09:02;;;;;;;7.97;3.43;;;6.90;99.90;;;;;;5094009;28;20232;-83
2022/12/27 12:11:42;;;;;;;5.63;3.47;;;6.70;99.90;;;;;;5073353;28;20220;-84
2022/12/27 12:14:42;;;;;;;6.50;3.53;;;6.60;99.90;;;;;;5074883;28;20206;-84
2022/12/27 12:17:31;;;;;;;11.07;3.73;;;6.60;99.90;;;;;;5078869;28;20297;-83
2022/12/27 12:20:11;;;;;;;7.87;4.03;;;6.50;99.90;;;;;;5093392;28;20226;-83
2022/12/27 12:22:50;;;;;;;8.17;4.00;;;6.40;99.90;;;;;;5094371;28;20204;-83
2022/12/27 12:25:49;;;;;;;7.33;3.93;;;6.40;99.90;;;;;;5074415;28;20696;-83
2022/12/27 12:28:36;;;;;;;8.00;4.03;;;6.40;99.90;;;;;;5084669;28;20232;-84
2022/12/27 12:31:19;;;;;;;11.67;4.77;;;6.40;99.90;;;;;;5094686;28;20198;-83
2022/12/27 12:34:07;;;;;;;6.23;3.73;;;6.50;99.90;;;;;;5087164;28;20214;-84
2022/12/27 12:36:50;;;;;;;9.97;4.63;;;6.50;99.90;;;;;;5083510;28;20292;-83
2022/12/27 12:39:32;;;;;;;11.70;5.90;;;6.60;99.90;;;;;;5087272;28;20214;-84
2022/12/27 12:42:14;;;;;;;10.03;5.73;;;6.60;99.90;;;;;;5093339;28;20200;-84
2022/12/27 12:45:19;;;;;;;9.90;5.83;;;6.60;99.90;;;;;;5080452;28;20217;-84
2022/12/27 12:48:09;;;;;;;9.40;5.80;;;6.60;99.90;;;;;;5089162;28;20701;-84
2022/12/27 12:51:03;;;;;;;8.67;5.37;;;6.70;99.90;;;;;;5078907;28;20733;-84
2022/12/27 12:53:48;;;;;;;8.87;5.73;;;6.70;99.90;;;;;;5092371;28;20255;-84
2022/12/27 12:56:37;;;;;;;9.93;5.47;;;6.80;99.90;;;;;;5087113;28;20200;-83
2022/12/27 12:59:13;;;;;;;10.50;6.23;;;6.90;99.90;;;;;;5097584;28;20312;-82
2022/12/27 13:01:53;;;;;;;14.43;6.57;;;7.00;99.90;;;;;;5099066;28;20197;-83
2022/12/27 13:04:33;;;;;;;15.57;6.40;;;7.00;99.90;;;;;;5081680;28;20217;-84
2022/12/27 13:07:31;;;;;;;9.13;5.87;;;6.90;99.90;;;;;;5085258;28;20208;-84
2022/12/27 13:10:26;;;;;;;10.77;5.73;;;7.00;99.90;;;;;;5084608;28;20669;-83
2022/12/27 13:13:01;;;;;;;11.73;6.43;;;6.80;99.90;;;;;;5094188;28;20241;-84
2022/12/27 13:15:45;;;;;;;12.63;6.93;;;7.00;99.90;;;;;;5075851;28;20206;-83
2022/12/27 13:18:21;;;;;;;10.50;6.43;;;6.90;99.90;;;;;;5077913;28;20720;-83
2022/12/27 13:20:59;;;;;;;10.33;6.23;;;7.10;99.90;;;;;;5079104;28;20240;-83
2022/12/27 13:23:38;;;;;;;8.80;6.20;;;7.00;99.90;;;;;;5089552;28;20616;-83
2022/12/27 13:26:20;;;;;;;14.27;6.40;;;7.10;99.90;;;;;;5099846;28;20204;-83
2022/12/27 13:29:00;;;;;;;9.17;6.20;;;7.00;99.90;;;;;;5100344;28;20227;-84
2022/12/27 13:31:39;;;;;;;11.57;6.40;;;7.00;99.90;;;;;;5079267;28;20205;-83
2022/12/27 13:34:20;;;;;;;10.30;6.67;;;7.00;99.90;;;;;;5091991;28;20552;-86
2022/12/27 13:37:05;;;;;;;15.30;7.17;;;6.90;99.90;;;;;;5099249;28;20569;-85
2022/12/27 13:39:45;;;;;;;11.07;6.67;;;6.90;99.90;;;;;;5095186;28;20210;-84
2022/12/27 13:42:41;;;;;;;9.47;6.07;;;6.80;99.90;;;;;;5079636;28;20198;-84
2022/12/27 13:45:36;;;;;;;12.93;6.97;;;6.80;99.90;;;;;;5097885;28;20206;-85
2022/12/27 13:48:20;;;;;;;12.43;7.20;;;6.70;99.90;;;;;;5092111;28;20224;-82
2022/12/27 13:51:07;;;;;;;11.43;6.57;;;6.70;99.90;;;;;;5096782;28;20209;-82
2022/12/27 13:53:56;;;;;;;13.70;7.00;;;6.70;99.90;;;;;;5084490;28;20572;-82
2022/12/27 13:56:34;;;;;;;10.43;6.60;;;6.60;99.90;;;;;;5108650;28;20197;-82
2022/12/27 13:59:26;;;;;;;10.90;7.20;;;6.60;99.90;;;;;;5099878;27;20233;-81
2022/12/27 14:02:10;;;;;;;10.40;6.87;;;6.60;99.90;;;;;;5099378;28;20198;-82
2022/12/27 14:04:53;;;;;;;13.33;8.00;;;6.50;99.90;;;;;;5099916;28;20404;-81
2022/12/27 14:07:50;;;;;;;11.83;7.37;;;6.50;99.90;;;;;;5090864;28;20218;-81
2022/12/27 14:10:26;;;;;;;11.40;7.13;;;6.50;99.90;;;;;;5094192;28;20190;-81
2022/12/27 14:13:00;;;;;;;11.77;7.23;;;6.40;99.90;;;;;;5094345;28;20288;-80
2022/12/27 14:15:52;;;;;;;13.27;7.70;;;6.50;99.90;;;;;;5096509;28;20204;-80
2022/12/27 14:18:29;;;;;;;16.43;7.33;;;6.40;99.90;;;;;;5082138;28;20714;-81
2022/12/27 14:21:09;;;;;;;14.10;7.77;;;6.40;99.90;;;;;;5094234;28;20221;-81
2022/12/27 14:24:00;;;;;;;14.70;7.13;;;6.40;99.90;;;;;;5099214;28;20197;-81
2022/12/27 14:27:15;;;;;;;13.60;7.30;;;6.40;99.90;;;;;;5079870;28;20207;-81
2022/12/27 14:30:05;;;;;;;15.47;8.03;;;6.40;99.90;;;;;;5054306;28;20264;-80
2022/12/27 14:33:08;;;;;;;14.23;7.70;;;6.30;99.90;;;;;;5088036;28;20209;-80
2022/12/27 14:36:11;;;;;;;11.90;7.13;;;6.30;99.90;;;;;;5082670;28;20212;-80
2022/12/27 14:39:14;;;;;;;13.60;7.77;;;6.30;99.90;;;;;;5092044;28;20233;-80
2022/12/27 14:42:16;;;;;;;12.40;7.83;;;6.30;99.90;;;;;;5089927;28;20262;-81
2022/12/27 14:45:26;;;;;;;12.37;8.37;;;6.20;99.90;;;;;;5078036;28;20205;-80
2022/12/27 14:48:46;;;;;;;13.37;8.23;;;6.10;99.90;;;;;;5093933;28;20218;-80
2022/12/27 14:51:34;;;;;;;14.87;8.43;;;6.00;99.90;;;;;;5087555;28;20190;-78
2022/12/27 14:54:37;;;;;;;18.63;9.13;;;5.90;99.90;;;;;;5088719;28;20225;-79
2022/12/27 14:57:16;;;;;;;16.03;8.47;;;5.90;99.90;;;;;;5091578;28;20216;-79
2022/12/27 14:59:51;;;;;;;16.60;9.73;;;5.80;99.90;;;;;;5091232;28;20218;-79
2022/12/27 15:02:38;;;;;;;18.30;9.50;;;5.70;99.90;;;;;;5087667;28;20658;-79
2022/12/27 15:05:21;;;;;;;17.60;9.47;;;5.60;99.90;;;;;;5092922;28;20212;-79